Time;durP1;ratioP1;P1;durP2;ratioP2;P2;SDS_P1;SDS_P2;PMS_P1;PMS_P2;Temp;Humidity;BMP_temperature;BMP_pressure;BME280_temperature;BME280_humidity;BME280_pressure;Samples;Min_cycle;Max_cycle;Signal;HPM_P1;HPM_P2
2022/12/06 00:01:59;;;;;;;0.57;0.57;;;1.10;99.90;;;;;;5063733;28;20486;-79
2022/12/06 00:04:26;;;;;;;0.80;0.60;;;1.20;99.90;;;;;;5065440;28;20544;-78
2022/12/06 00:06:53;;;;;;;0.67;0.50;;;1.20;99.90;;;;;;5071813;28;20490;-79
2022/12/06 00:09:22;;;;;;;0.73;0.60;;;1.20;99.90;;;;;;5070571;28;20468;-78
2022/12/06 00:11:49;;;;;;;0.60;0.50;;;1.30;99.90;;;;;;5074220;28;20514;-78
2022/12/06 00:14:19;;;;;;;2.50;1.37;;;1.30;99.90;;;;;;5067999;28;20446;-78
2022/12/06 00:16:47;;;;;;;1.47;1.37;;;1.30;99.90;;;;;;5084064;28;20482;-78
2022/12/06 00:19:15;;;;;;;0.70;0.60;;;1.30;99.90;;;;;;5070011;28;20754;-78
2022/12/06 00:21:42;;;;;;;2.07;1.50;;;1.40;99.90;;;;;;5074323;28;21164;-78
2022/12/06 00:24:12;;;;;;;2.53;2.33;;;1.40;99.90;;;;;;5076985;28;20474;-78
2022/12/06 00:26:42;;;;;;;4.67;2.77;;;1.50;99.90;;;;;;5083301;28;20590;-78
2022/12/06 00:29:13;;;;;;;5.10;3.17;;;1.50;99.90;;;;;;5068173;28;20487;-78
2022/12/06 00:31:41;;;;;;;5.33;3.90;;;1.50;99.90;;;;;;5074639;28;21093;-78
2022/12/06 00:34:08;;;;;;;6.00;4.03;;;1.50;99.90;;;;;;5083485;28;20535;-78
2022/12/06 00:36:38;;;;;;;6.43;5.00;;;1.50;99.90;;;;;;5071377;28;20466;-78
2022/12/06 00:39:06;;;;;;;5.97;4.07;;;1.50;99.90;;;;;;5074713;28;20536;-78
2022/12/06 00:41:33;;;;;;;5.53;4.17;;;1.50;99.90;;;;;;5083321;28;20542;-78
2022/12/06 00:44:01;;;;;;;6.10;3.90;;;1.50;99.90;;;;;;5083112;28;20454;-78
2022/12/06 00:46:29;;;;;;;7.77;4.80;;;1.50;99.90;;;;;;5080808;28;20510;-78
2022/12/06 00:48:59;;;;;;;5.90;4.73;;;1.50;99.90;;;;;;5068568;28;20508;-78
2022/12/06 00:51:28;;;;;;;3.40;2.87;;;1.60;99.90;;;;;;5075575;28;20465;-78
2022/12/06 00:53:55;;;;;;;4.73;3.20;;;1.60;99.90;;;;;;5076558;28;20499;-78
2022/12/06 00:56:23;;;;;;;4.23;2.47;;;1.60;99.90;;;;;;5079840;28;20448;-78
2022/12/06 00:58:50;;;;;;;2.17;1.97;;;1.60;99.90;;;;;;5088024;28;20451;-78
2022/12/06 01:01:20;;;;;;;2.90;1.70;;;1.60;99.90;;;;;;5075200;28;21244;-78
2022/12/06 01:03:50;;;;;;;1.93;1.50;;;1.60;99.90;;;;;;5087721;28;20802;-78
2022/12/06 01:06:21;;;;;;;2.57;1.60;;;1.60;99.90;;;;;;5079202;28;20486;-78
2022/12/06 01:08:48;;;;;;;3.17;1.80;;;1.70;99.90;;;;;;5086781;28;20652;-78
2022/12/06 01:11:16;;;;;;;2.53;2.33;;;1.70;99.90;;;;;;5080776;28;20512;-78
2022/12/06 01:13:43;;;;;;;3.93;2.83;;;1.70;99.90;;;;;;5073950;28;20494;-78
2022/12/06 01:16:13;;;;;;;2.13;1.83;;;1.70;99.90;;;;;;5070873;28;20467;-78
2022/12/06 01:18:41;;;;;;;4.03;2.93;;;1.70;99.90;;;;;;5069238;28;21043;-78
2022/12/06 01:21:10;;;;;;;4.13;2.83;;;1.70;99.90;;;;;;5069047;28;20491;-78
2022/12/06 01:23:38;;;;;;;3.40;2.70;;;1.70;99.90;;;;;;5083623;28;20447;-78
2022/12/06 01:26:07;;;;;;;3.07;1.77;;;1.70;99.90;;;;;;5065318;28;20576;-78
2022/12/06 01:28:34;;;;;;;1.80;1.10;;;1.80;99.90;;;;;;5083809;28;20599;-78
2022/12/06 01:31:07;;;;;;;1.50;1.00;;;1.80;99.90;;;;;;5065135;28;20495;-78
2022/12/06 01:33:34;;;;;;;2.90;1.07;;;1.80;99.90;;;;;;5066993;28;20961;-78
2022/12/06 01:36:01;;;;;;;2.00;1.43;;;1.80;99.90;;;;;;5065490;28;20509;-78
2022/12/06 01:38:28;;;;;;;3.63;2.40;;;1.80;99.90;;;;;;5067017;28;20517;-78
2022/12/06 01:40:57;;;;;;;3.13;2.37;;;1.80;99.90;;;;;;5066528;28;20484;-78
2022/12/06 01:43:32;;;;;;;3.90;2.83;;;1.80;99.90;;;;;;5071181;28;20451;-78
2022/12/06 01:46:03;;;;;;;4.13;3.30;;;1.90;99.90;;;;;;5068132;28;20451;-78
2022/12/06 01:48:30;;;;;;;3.43;2.33;;;1.90;99.90;;;;;;5068305;28;20556;-78
2022/12/06 01:50:59;;;;;;;1.70;1.60;;;1.90;99.90;;;;;;5068198;28;20480;-78
2022/12/06 01:53:26;;;;;;;1.30;1.00;;;1.90;99.90;;;;;;5074725;28;20564;-78
2022/12/06 01:55:54;;;;;;;1.00;0.77;;;1.90;99.90;;;;;;5083919;28;20474;-78
2022/12/06 01:58:28;;;;;;;1.00;0.77;;;1.90;99.90;;;;;;5067675;28;20472;-78
2022/12/06 02:00:55;;;;;;;0.80;0.70;;;2.00;99.90;;;;;;5066801;28;20451;-78
2022/12/06 02:03:27;;;;;;;1.27;0.63;;;2.00;99.90;;;;;;5062692;28;20495;-78
2022/12/06 02:05:56;;;;;;;0.70;0.70;;;2.00;99.90;;;;;;5069295;28;20486;-78
2022/12/06 02:08:24;;;;;;;0.60;0.60;;;2.10;99.90;;;;;;5069389;28;20516;-78
2022/12/06 02:10:51;;;;;;;0.90;0.70;;;2.10;99.90;;;;;;5071040;28;20507;-78
2022/12/06 02:13:18;;;;;;;1.17;1.00;;;2.10;99.90;;;;;;5064497;28;20487;-78
2022/12/06 02:15:53;;;;;;;0.60;0.60;;;2.10;99.90;;;;;;5076853;28;20499;-78
2022/12/06 02:18:33;;;;;;;1.17;1.07;;;2.10;99.90;;;;;;5076998;28;21380;-78
2022/12/06 02:21:09;;;;;;;1.30;0.80;;;2.10;99.90;;;;;;5073620;28;20546;-78
2022/12/06 02:24:14;;;;;;;1.00;0.90;;;2.10;99.90;;;;;;5085268;28;21024;-78
2022/12/06 02:26:45;;;;;;;1.27;0.83;;;2.00;99.90;;;;;;5069324;28;20560;-78
2022/12/06 02:29:40;;;;;;;1.50;0.90;;;2.00;99.90;;;;;;5074831;28;21230;-78
2022/12/06 02:32:12;;;;;;;1.07;0.93;;;2.00;99.90;;;;;;5076536;28;20475;-78
2022/12/06 02:34:45;;;;;;;1.00;1.00;;;2.00;99.90;;;;;;5084141;28;20531;-78
2022/12/06 02:37:15;;;;;;;1.17;1.00;;;1.90;99.90;;;;;;5068658;28;20513;-78
2022/12/06 02:39:48;;;;;;;2.13;1.53;;;1.90;99.90;;;;;;5076423;28;20551;-78
2022/12/06 02:42:19;;;;;;;2.50;2.07;;;1.90;99.90;;;;;;5068016;28;20479;-78
2022/12/06 02:44:49;;;;;;;2.90;1.70;;;1.90;99.90;;;;;;5069044;28;20907;-78
2022/12/06 02:47:21;;;;;;;2.43;2.17;;;2.00;99.90;;;;;;5073039;28;20580;-78
2022/12/06 02:49:49;;;;;;;3.03;2.07;;;1.90;99.90;;;;;;5076735;28;20487;-78
2022/12/06 02:52:19;;;;;;;2.50;2.30;;;1.90;99.90;;;;;;5065038;28;20467;-78
2022/12/06 02:54:48;;;;;;;2.80;2.27;;;1.90;99.90;;;;;;5073679;28;20572;-78
2022/12/06 02:57:15;;;;;;;2.30;1.97;;;1.90;99.90;;;;;;5066696;28;20440;-78
2022/12/06 02:59:51;;;;;;;3.27;2.40;;;1.90;99.90;;;;;;5069213;28;20539;-78
2022/12/06 03:02:21;;;;;;;3.37;2.53;;;1.90;99.90;;;;;;5082069;28;20450;-78
2022/12/06 03:04:56;;;;;;;4.27;3.47;;;1.90;99.90;;;;;;5065920;28;21144;-78
2022/12/06 03:07:36;;;;;;;3.50;3.20;;;1.90;99.90;;;;;;5077815;28;20481;-78
2022/12/06 03:10:31;;;;;;;3.53;2.83;;;2.00;99.90;;;;;;5082221;28;21112;-78
2022/12/06 03:13:10;;;;;;;3.97;3.00;;;2.00;99.90;;;;;;5068346;28;20919;-78
2022/12/06 03:15:46;;;;;;;2.70;2.00;;;2.00;99.90;;;;;;5064763;28;20836;-78
2022/12/06 03:18:18;;;;;;;2.70;2.50;;;2.00;99.90;;;;;;5064522;28;20495;-78
2022/12/06 03:20:51;;;;;;;2.97;2.73;;;2.00;99.90;;;;;;5084093;28;20454;-78
2022/12/06 03:23:22;;;;;;;2.33;2.13;;;2.00;99.90;;;;;;5076171;28;20498;-78
2022/12/06 03:25:51;;;;;;;3.20;1.80;;;2.00;99.90;;;;;;5063717;28;20536;-78
2022/12/06 03:28:20;;;;;;;3.30;2.17;;;2.00;99.90;;;;;;5062237;28;20479;-78
2022/12/06 03:30:51;;;;;;;3.60;2.27;;;1.90;99.90;;;;;;5065696;28;20497;-78
2022/12/06 03:33:22;;;;;;;3.93;2.73;;;1.90;99.90;;;;;;5062624;28;20506;-78
2022/12/06 03:35:52;;;;;;;4.03;2.90;;;1.90;99.90;;;;;;5065294;28;20479;-78
2022/12/06 03:38:25;;;;;;;4.43;2.83;;;2.00;99.90;;;;;;5063818;28;20467;-78
2022/12/06 03:40:55;;;;;;;3.03;2.10;;;2.00;99.90;;;;;;5065128;28;20474;-78
2022/12/06 03:43:23;;;;;;;3.77;2.90;;;2.00;99.90;;;;;;5062705;28;20508;-77
2022/12/06 03:45:55;;;;;;;3.20;2.90;;;2.00;99.90;;;;;;5068333;28;20748;-78
2022/12/06 03:48:29;;;;;;;3.80;3.10;;;2.00;99.90;;;;;;5066136;28;20480;-78
2022/12/06 03:51:01;;;;;;;4.10;2.60;;;2.00;99.90;;;;;;5067701;28;20448;-78
2022/12/06 03:53:28;;;;;;;3.03;1.83;;;2.10;99.90;;;;;;5062501;28;20475;-78
2022/12/06 03:55:55;;;;;;;3.33;3.03;;;2.10;99.90;;;;;;5078965;28;20490;-75
2022/12/06 03:58:22;;;;;;;4.57;3.63;;;2.10;99.90;;;;;;5078553;28;20474;-76
2022/12/06 04:00:49;;;;;;;4.97;3.33;;;2.00;99.90;;;;;;5072642;28;20479;-76
2022/12/06 04:03:16;;;;;;;6.10;5.20;;;2.00;99.90;;;;;;5061857;28;20472;-76
2022/12/06 04:05:44;;;;;;;7.47;4.87;;;2.00;99.90;;;;;;5070726;28;20506;-76
2022/12/06 04:08:11;;;;;;;4.73;4.17;;;2.00;99.90;;;;;;5072885;28;20521;-78
2022/12/06 04:10:38;;;;;;;7.07;5.20;;;2.00;99.90;;;;;;5063493;28;20534;-78
2022/12/06 04:13:05;;;;;;;4.43;4.03;;;2.00;99.90;;;;;;5064103;28;20499;-76
2022/12/06 04:15:35;;;;;;;6.37;3.10;;;2.00;99.90;;;;;;5076169;28;20458;-76
2022/12/06 04:18:15;;;;;;;6.07;4.10;;;2.00;99.90;;;;;;5073724;28;20926;-76
2022/12/06 04:23:35;;;;;;;3.90;3.40;;;2.00;99.90;;;;;;5081542;28;20502;-76
2022/12/06 04:26:02;;;;;;;4.90;3.10;;;2.00;99.90;;;;;;5076359;28;20478;-76
2022/12/06 04:39:29;;;;;;;1.97;1.73;;;1.90;99.90;;;;;;5070504;28;20915;-77
2022/12/06 04:44:41;;;;;;;1.40;1.20;;;2.00;99.90;;;;;;5065646;28;20528;-78
2022/12/06 04:47:09;;;;;;;2.00;1.90;;;2.10;99.90;;;;;;5064338;28;20575;-78
2022/12/06 04:49:37;;;;;;;2.40;1.93;;;2.00;99.90;;;;;;5072151;28;20475;-77
2022/12/06 04:52:06;;;;;;;2.80;2.50;;;2.10;99.90;;;;;;5069320;28;20487;-77
2022/12/06 04:54:33;;;;;;;3.17;2.03;;;2.10;99.90;;;;;;5067783;28;20487;-77
2022/12/06 04:57:01;;;;;;;2.17;1.80;;;2.10;99.90;;;;;;5077290;28;20523;-77
2022/12/06 04:59:28;;;;;;;3.03;2.73;;;2.10;99.90;;;;;;5067815;28;20506;-77
2022/12/06 05:01:56;;;;;;;4.07;2.80;;;2.10;99.90;;;;;;5069469;28;20509;-77
2022/12/06 05:04:23;;;;;;;3.13;2.40;;;2.10;99.90;;;;;;5069430;28;20550;-77
2022/12/06 05:06:51;;;;;;;2.90;2.60;;;2.10;99.90;;;;;;5068649;28;20491;-77
2022/12/06 05:09:19;;;;;;;3.00;2.43;;;2.20;99.90;;;;;;5074419;28;20464;-78
2022/12/06 05:11:46;;;;;;;3.70;3.30;;;2.20;99.90;;;;;;5078395;28;20491;-77
2022/12/06 05:14:13;;;;;;;3.97;3.57;;;2.20;99.90;;;;;;5074566;28;20502;-77
2022/12/06 05:16:40;;;;;;;2.80;2.53;;;2.20;99.90;;;;;;5075828;28;20553;-77
2022/12/06 05:19:07;;;;;;;6.90;3.67;;;2.20;99.90;;;;;;5070390;28;21004;-77
2022/12/06 05:21:34;;;;;;;4.53;3.83;;;2.30;99.90;;;;;;5073354;28;20939;-77
2022/12/06 05:24:01;;;;;;;4.93;4.40;;;2.30;99.90;;;;;;5072255;28;20518;-77
2022/12/06 05:26:29;;;;;;;5.50;3.53;;;2.30;99.90;;;;;;5065165;28;20568;-77
2022/12/06 05:28:57;;;;;;;6.43;4.37;;;2.30;99.90;;;;;;5064390;28;20566;-77
2022/12/06 05:31:25;;;;;;;5.13;4.63;;;2.30;99.90;;;;;;5065415;28;20858;-77
2022/12/06 05:33:54;;;;;;;6.77;4.13;;;2.30;99.90;;;;;;5068214;28;20447;-77
2022/12/06 05:36:24;;;;;;;4.13;3.33;;;2.30;99.90;;;;;;5070004;28;20560;-77
2022/12/06 05:38:51;;;;;;;6.60;4.30;;;2.30;99.90;;;;;;5077468;28;20546;-76
2022/12/06 05:41:19;;;;;;;4.83;4.33;;;2.40;99.90;;;;;;5079191;28;20475;-77
2022/12/06 05:43:48;;;;;;;11.13;4.67;;;2.40;99.90;;;;;;5065207;28;20459;-76
2022/12/06 05:46:16;;;;;;;7.40;5.10;;;2.40;99.90;;;;;;5064224;28;20479;-77
2022/12/06 05:48:43;;;;;;;9.10;6.50;;;2.40;99.90;;;;;;5073836;28;20999;-77
2022/12/06 05:51:10;;;;;;;7.67;5.47;;;2.40;99.90;;;;;;5068132;28;20463;-75
2022/12/06 05:53:37;;;;;;;6.30;5.00;;;2.40;99.90;;;;;;5065916;28;20460;-75
2022/12/06 05:56:06;;;;;;;7.13;6.43;;;2.40;99.90;;;;;;5071885;28;20467;-75
2022/12/06 05:58:33;;;;;;;6.40;5.30;;;2.40;99.90;;;;;;5069197;28;20908;-75
2022/12/06 06:01:02;;;;;;;8.10;5.93;;;2.40;99.90;;;;;;5066190;28;20506;-75
2022/12/06 06:03:29;;;;;;;7.63;6.70;;;2.40;99.90;;;;;;5067829;28;20463;-75
2022/12/06 06:05:58;;;;;;;7.23;6.53;;;2.40;99.90;;;;;;5071101;28;20900;-75
2022/12/06 06:08:26;;;;;;;11.10;7.87;;;2.40;99.90;;;;;;5077314;28;20705;-74
2022/12/06 06:10:53;;;;;;;8.90;5.87;;;2.40;99.90;;;;;;5074884;28;20890;-75
2022/12/06 06:13:20;;;;;;;9.60;6.60;;;2.40;99.90;;;;;;5062917;28;20652;-75
2022/12/06 06:15:48;;;;;;;8.80;5.47;;;2.40;99.90;;;;;;5073943;28;20734;-75
2022/12/06 06:18:17;;;;;;;9.80;6.60;;;2.40;99.90;;;;;;5073259;28;20835;-75
2022/12/06 06:20:50;;;;;;;9.00;5.40;;;2.40;99.90;;;;;;5072136;28;20463;-76
2022/12/06 06:23:17;;;;;;;7.53;5.90;;;2.50;99.90;;;;;;5063983;28;20448;-76
2022/12/06 06:25:44;;;;;;;6.70;5.60;;;2.40;99.90;;;;;;5074594;28;20509;-76
2022/12/06 06:28:11;;;;;;;6.60;5.97;;;2.40;99.90;;;;;;5063150;28;20625;-76
2022/12/06 06:30:38;;;;;;;9.33;6.00;;;2.50;99.90;;;;;;5065550;28;20470;-76
2022/12/06 06:33:05;;;;;;;7.67;6.33;;;2.40;99.90;;;;;;5064906;28;20568;-77
2022/12/06 06:35:34;;;;;;;6.70;5.80;;;2.40;99.90;;;;;;5062664;28;20911;-76
2022/12/06 06:38:01;;;;;;;8.00;6.63;;;2.40;99.90;;;;;;5066353;28;20463;-76
2022/12/06 06:40:28;;;;;;;8.80;7.67;;;2.50;99.90;;;;;;5066866;28;20940;-76
2022/12/06 06:42:55;;;;;;;10.47;6.73;;;2.50;99.90;;;;;;5068871;28;20436;-76
2022/12/06 06:45:22;;;;;;;10.07;6.77;;;2.40;99.90;;;;;;5068450;28;20452;-76
2022/12/06 06:47:49;;;;;;;10.63;6.47;;;2.50;99.90;;;;;;5077538;28;20516;-76
2022/12/06 06:50:17;;;;;;;9.47;7.20;;;2.50;99.90;;;;;;5072297;28;20861;-76
2022/12/06 06:52:45;;;;;;;18.63;12.57;;;2.50;99.90;;;;;;5067720;28;20776;-76
2022/12/06 06:55:12;;;;;;;16.83;13.53;;;2.50;99.90;;;;;;5063038;28;20923;-76
2022/12/06 06:57:40;;;;;;;17.33;12.50;;;2.60;99.90;;;;;;5063700;28;20543;-76
2022/12/06 07:00:08;;;;;;;18.83;11.53;;;2.60;99.90;;;;;;5068655;28;20455;-76
2022/12/06 07:02:36;;;;;;;34.63;15.47;;;2.60;99.90;;;;;;5064450;28;20448;-76
2022/12/06 07:05:03;;;;;;;17.03;8.97;;;2.50;99.90;;;;;;5064331;28;20952;-75
2022/12/06 07:07:30;;;;;;;13.43;7.80;;;2.50;99.90;;;;;;5065204;28;20484;-76
2022/12/06 07:09:58;;;;;;;11.47;8.70;;;2.50;99.90;;;;;;5065140;28;20451;-76
2022/12/06 07:12:25;;;;;;;12.33;8.40;;;2.40;99.90;;;;;;5076660;28;20565;-76
2022/12/06 07:14:52;;;;;;;13.10;9.50;;;2.50;99.90;;;;;;5064916;28;20491;-76
2022/12/06 07:17:19;;;;;;;15.20;10.50;;;2.60;99.90;;;;;;5066655;28;20585;-75
2022/12/06 07:19:46;;;;;;;11.97;8.50;;;3.50;99.90;;;;;;5067188;28;20480;-76
2022/12/06 07:22:13;;;;;;;9.33;8.33;;;3.40;99.90;;;;;;5058942;28;20478;-76
2022/12/06 07:24:40;;;;;;;8.03;5.80;;;3.00;99.90;;;;;;5070702;28;20475;-76
2022/12/06 07:27:08;;;;;;;7.33;6.00;;;2.90;99.90;;;;;;5062176;28;20548;-76
2022/12/06 07:29:35;;;;;;;12.60;8.30;;;2.80;99.90;;;;;;5065245;28;20587;-76
2022/12/06 07:32:02;;;;;;;8.57;6.90;;;2.80;99.90;;;;;;5070978;28;20996;-76
2022/12/06 07:34:29;;;;;;;12.63;9.20;;;2.70;99.90;;;;;;5064533;28;20487;-76
2022/12/06 07:36:56;;;;;;;10.60;8.33;;;2.70;99.90;;;;;;5068963;28;20459;-77
2022/12/06 07:39:23;;;;;;;11.00;7.60;;;2.70;99.90;;;;;;5066391;28;20919;-76
2022/12/06 07:47:20;;;;;;;11.87;8.50;;;2.80;99.90;;;;;;5060975;28;20954;-76
2022/12/06 07:49:47;;;;;;;13.20;10.27;;;2.80;99.90;;;;;;5065300;28;20523;-76
2022/12/06 07:52:14;;;;;;;9.67;7.10;;;2.90;99.90;;;;;;5060949;28;20483;-76
2022/12/06 07:54:41;;;;;;;8.30;7.00;;;2.90;99.90;;;;;;5062620;28;20575;-76
2022/12/06 07:57:08;;;;;;;10.77;7.03;;;2.90;99.90;;;;;;5061219;28;20543;-76
2022/12/06 07:59:36;;;;;;;8.60;6.60;;;3.00;99.90;;;;;;5064999;28;20868;-76
2022/12/06 08:02:03;;;;;;;10.67;7.40;;;3.10;99.90;;;;;;5063980;28;21001;-75
2022/12/06 08:04:30;;;;;;;8.73;6.53;;;3.00;99.90;;;;;;5064992;28;20463;-76
2022/12/06 08:06:59;;;;;;;7.17;6.47;;;3.00;99.90;;;;;;5067716;28;20452;-76
2022/12/06 08:09:26;;;;;;;7.37;6.30;;;3.10;99.90;;;;;;5064146;28;20502;-75
2022/12/06 08:11:53;;;;;;;11.50;8.60;;;3.10;99.90;;;;;;5076878;28;20906;-75
2022/12/06 08:14:22;;;;;;;17.20;9.90;;;3.20;99.90;;;;;;5059413;28;20487;-75
2022/12/06 08:16:51;;;;;;;10.60;7.40;;;3.30;99.90;;;;;;5069103;28;20467;-76
2022/12/06 08:19:18;;;;;;;9.03;8.10;;;3.30;99.90;;;;;;5070154;28;20523;-76
2022/12/06 08:21:45;;;;;;;22.87;12.80;;;3.40;99.90;;;;;;5062692;28;20467;-77
2022/12/06 08:24:12;;;;;;;13.93;9.63;;;3.40;99.90;;;;;;5059927;28;20537;-76
2022/12/06 08:26:39;;;;;;;8.63;7.73;;;3.50;99.90;;;;;;5067678;28;20872;-76
2022/12/06 08:29:06;;;;;;;11.60;9.03;;;3.50;99.90;;;;;;5066741;28;20914;-76
2022/12/06 08:31:33;;;;;;;15.63;10.20;;;3.60;99.90;;;;;;5070558;28;20551;-76
2022/12/06 08:34:02;;;;;;;13.03;10.07;;;3.60;99.90;;;;;;5070311;28;20457;-76
2022/12/06 08:36:29;;;;;;;13.40;10.27;;;3.70;99.90;;;;;;5076284;28;20487;-76
2022/12/06 08:38:58;;;;;;;14.40;10.30;;;3.70;99.90;;;;;;5066228;28;20466;-77
2022/12/06 08:44:12;;;;;;;12.73;9.70;;;3.90;99.90;;;;;;5071812;28;20495;-77
2022/12/06 08:46:40;;;;;;;13.50;10.50;;;3.90;99.90;;;;;;5063472;28;20462;-77
2022/12/06 08:49:08;;;;;;;14.03;11.00;;;4.00;99.90;;;;;;5067176;28;20579;-77
2022/12/06 08:51:36;;;;;;;16.37;12.30;;;4.00;99.90;;;;;;5060453;28;20484;-77
2022/12/06 08:54:04;;;;;;;13.70;9.23;;;3.90;99.90;;;;;;5073513;28;20583;-77
2022/12/06 08:56:31;;;;;;;15.83;9.60;;;3.90;99.90;;;;;;5071029;28;20514;-77
2022/12/06 08:58:58;;;;;;;14.50;9.20;;;3.90;99.90;;;;;;5061940;28;20467;-77
2022/12/06 09:01:27;;;;;;;13.40;10.27;;;3.90;99.90;;;;;;5065265;28;20502;-77
2022/12/06 09:03:55;;;;;;;11.83;7.37;;;3.90;99.90;;;;;;5071644;28;20486;-77
2022/12/06 09:06:23;;;;;;;18.80;12.07;;;3.90;99.90;;;;;;5072237;28;20599;-77
2022/12/06 09:08:51;;;;;;;10.73;8.30;;;3.90;99.90;;;;;;5066263;28;20495;-77
2022/12/06 09:11:19;;;;;;;22.50;14.47;;;3.90;99.90;;;;;;5083750;28;20540;-77
2022/12/06 09:13:46;;;;;;;17.83;11.73;;;4.00;99.90;;;;;;5071230;28;20533;-77
2022/12/06 09:16:16;;;;;;;11.23;7.97;;;4.00;99.90;;;;;;5076322;28;20616;-77
2022/12/06 09:18:42;;;;;;;8.00;6.60;;;4.00;99.90;;;;;;5080443;28;20451;-77
2022/12/06 09:21:13;;;;;;;9.90;6.50;;;4.00;99.90;;;;;;5074572;28;20495;-77
2022/12/06 09:23:42;;;;;;;9.80;7.13;;;4.10;99.90;;;;;;5078834;28;21218;-77
2022/12/06 09:26:09;;;;;;;8.70;6.60;;;4.10;99.90;;;;;;5069536;28;21068;-77
2022/12/06 09:28:39;;;;;;;9.17;6.10;;;4.10;99.90;;;;;;5074887;28;20541;-77
2022/12/06 09:31:06;;;;;;;9.90;6.50;;;4.10;99.90;;;;;;5078951;28;20482;-78
2022/12/06 09:33:34;;;;;;;7.87;7.13;;;4.20;99.90;;;;;;5077822;28;20487;-78
2022/12/06 09:36:04;;;;;;;7.33;6.57;;;4.40;99.90;;;;;;5082267;28;20451;-78
2022/12/06 09:38:36;;;;;;;7.33;6.23;;;4.40;99.90;;;;;;5071642;28;20607;-78
2022/12/06 09:41:14;;;;;;;6.97;5.80;;;4.40;99.90;;;;;;5080818;28;20512;-78
2022/12/06 09:43:53;;;;;;;10.10;6.87;;;4.50;99.90;;;;;;5075196;28;20458;-78
2022/12/06 09:46:33;;;;;;;8.10;6.03;;;4.60;99.90;;;;;;5065745;28;20493;-77
2022/12/06 09:49:27;;;;;;;8.47;6.13;;;4.70;99.90;;;;;;5082066;28;20566;-77
2022/12/06 09:52:15;;;;;;;9.33;7.23;;;4.70;99.90;;;;;;5069602;28;20488;-78
2022/12/06 09:55:01;;;;;;;5.90;5.27;;;4.70;99.90;;;;;;5078755;28;20574;-78
2022/12/06 09:57:37;;;;;;;6.00;5.40;;;4.70;99.90;;;;;;5076512;28;20486;-77
2022/12/06 10:00:07;;;;;;;6.47;5.83;;;4.70;99.90;;;;;;5075787;28;20517;-78
2022/12/06 10:03:05;;;;;;;9.80;5.67;;;4.70;99.90;;;;;;5073714;28;20911;-78
2022/12/06 10:05:41;;;;;;;9.20;6.73;;;4.70;99.90;;;;;;5076982;28;20446;-77
2022/12/06 10:08:24;;;;;;;8.00;6.40;;;4.60;99.90;;;;;;5069757;28;20460;-78
2022/12/06 10:10:57;;;;;;;9.97;6.30;;;4.70;99.90;;;;;;5084431;28;20470;-78
2022/12/06 10:13:39;;;;;;;6.50;5.80;;;4.70;99.90;;;;;;5070658;28;20934;-77
2022/12/06 10:16:13;;;;;;;9.73;7.60;;;4.70;99.90;;;;;;5073797;28;20495;-77
2022/12/06 10:18:53;;;;;;;8.20;5.73;;;4.80;99.90;;;;;;5071384;28;20483;-77
2022/12/06 10:21:29;;;;;;;10.13;7.50;;;4.80;99.90;;;;;;5079286;28;20474;-77
2022/12/06 10:24:06;;;;;;;8.70;6.10;;;4.80;99.90;;;;;;5076113;28;20483;-77
2022/12/06 10:26:43;;;;;;;8.50;7.00;;;4.90;99.90;;;;;;5076208;28;20600;-77
2022/12/06 10:29:19;;;;;;;6.47;5.80;;;4.90;99.90;;;;;;5073898;28;20514;-77
2022/12/06 10:31:57;;;;;;;6.53;5.93;;;4.90;99.90;;;;;;5073700;28;20451;-76
2022/12/06 10:34:39;;;;;;;8.80;5.73;;;4.90;99.90;;;;;;5073655;28;20443;-76
2022/12/06 10:37:17;;;;;;;6.80;5.47;;;5.00;99.90;;;;;;5074616;28;20946;-76
2022/12/06 10:39:49;;;;;;;7.87;6.03;;;5.00;99.90;;;;;;5075166;28;20455;-76
2022/12/06 10:42:28;;;;;;;6.33;5.67;;;5.10;99.90;;;;;;5074043;28;21215;-76
2022/12/06 10:45:01;;;;;;;8.80;6.00;;;5.10;99.90;;;;;;5072815;28;20862;-76
2022/12/06 10:47:32;;;;;;;7.70;6.00;;;5.10;99.90;;;;;;5068150;28;20559;-77
2022/12/06 10:50:05;;;;;;;7.10;5.50;;;5.10;99.90;;;;;;5067644;28;20487;-77
2022/12/06 10:52:39;;;;;;;6.00;5.40;;;5.20;99.90;;;;;;5071619;28;20482;-77
2022/12/06 10:55:24;;;;;;;9.10;6.27;;;5.40;99.90;;;;;;5072202;28;20952;-77
2022/12/06 10:57:58;;;;;;;6.27;5.30;;;5.30;99.90;;;;;;5080674;28;20471;-77
2022/12/06 11:00:28;;;;;;;6.53;4.90;;;5.30;99.90;;;;;;5080674;28;20917;-77
2022/12/06 11:03:00;;;;;;;6.97;5.70;;;5.20;99.90;;;;;;5082359;28;20487;-77
2022/12/06 11:05:34;;;;;;;5.77;4.87;;;5.20;99.90;;;;;;5076931;28;20435;-77
2022/12/06 11:08:06;;;;;;;6.93;5.60;;;5.10;99.90;;;;;;5081757;28;20486;-77
2022/12/06 11:10:35;;;;;;;6.03;4.97;;;5.10;99.90;;;;;;5090663;28;20488;-77
2022/12/06 11:13:15;;;;;;;7.57;5.80;;;5.10;99.90;;;;;;5083234;28;20553;-77
2022/12/06 11:15:50;;;;;;;9.93;5.47;;;5.10;99.90;;;;;;5079331;28;20636;-77
2022/12/06 11:18:18;;;;;;;8.33;7.23;;;5.20;99.90;;;;;;5068332;28;20487;-77
2022/12/06 11:20:51;;;;;;;7.37;5.77;;;5.20;99.90;;;;;;5070647;28;20451;-77
2022/12/06 11:23:25;;;;;;;8.07;6.53;;;5.30;99.90;;;;;;5073217;28;20519;-77
2022/12/06 11:26:02;;;;;;;9.07;5.90;;;5.40;99.90;;;;;;5084599;28;20474;-77
2022/12/06 11:28:36;;;;;;;7.53;5.83;;;5.40;99.90;;;;;;5075942;28;20487;-77
2022/12/06 11:31:15;;;;;;;11.40;8.63;;;5.30;99.90;;;;;;5078552;28;20452;-77
2022/12/06 11:33:43;;;;;;;9.90;6.50;;;5.20;99.90;;;;;;5068530;28;20534;-77
2022/12/06 11:36:10;;;;;;;6.30;5.60;;;5.20;99.90;;;;;;5079120;28;20479;-76
2022/12/06 11:38:41;;;;;;;7.37;5.57;;;5.20;99.90;;;;;;5073744;28;20490;-75
2022/12/06 11:41:11;;;;;;;6.13;4.70;;;5.30;99.90;;;;;;5077996;28;20540;-77
2022/12/06 11:43:39;;;;;;;6.90;5.40;;;5.10;99.90;;;;;;5076551;28;20519;-76
2022/12/06 11:46:10;;;;;;;8.00;5.90;;;5.00;99.90;;;;;;5073117;28;20970;-76
2022/12/06 11:48:37;;;;;;;9.47;6.30;;;5.00;99.90;;;;;;5070137;28;20549;-76
2022/12/06 11:51:07;;;;;;;10.93;6.37;;;4.90;99.90;;;;;;5073747;28;20527;-78
2022/12/06 11:53:41;;;;;;;5.40;4.83;;;4.90;99.90;;;;;;5068934;28;20483;-76
2022/12/06 11:56:19;;;;;;;5.47;4.87;;;4.80;99.90;;;;;;5069701;28;20476;-77
2022/12/06 11:58:52;;;;;;;7.00;5.97;;;4.80;99.90;;;;;;5069825;28;20471;-78
2022/12/06 12:01:34;;;;;;;6.60;5.83;;;4.80;99.90;;;;;;5070716;28;20530;-77
2022/12/06 12:04:41;;;;;;;5.93;5.30;;;4.80;99.90;;;;;;5080020;28;20490;-77
2022/12/06 12:07:15;;;;;;;8.90;6.17;;;4.80;99.90;;;;;;5070011;28;20521;-77
2022/12/06 12:09:48;;;;;;;9.00;6.43;;;4.70;99.90;;;;;;5077807;28;20495;-77
2022/12/06 12:12:17;;;;;;;9.40;7.13;;;4.70;99.90;;;;;;5067881;28;20447;-77
2022/12/06 12:14:50;;;;;;;5.60;5.10;;;4.70;99.90;;;;;;5079568;28;21614;-77
2022/12/06 12:17:22;;;;;;;9.87;6.60;;;4.70;99.90;;;;;;5076011;28;20526;-77
2022/12/06 12:19:51;;;;;;;9.03;6.67;;;4.80;99.90;;;;;;5070752;28;22063;-77
2022/12/06 12:22:30;;;;;;;7.17;5.63;;;4.90;99.90;;;;;;5079051;28;20479;-77
2022/12/06 12:24:58;;;;;;;7.60;5.70;;;4.90;99.90;;;;;;5076056;28;20443;-77
2022/12/06 12:27:43;;;;;;;7.17;5.90;;;4.90;99.90;;;;;;5081957;28;20528;-78
2022/12/06 12:30:18;;;;;;;8.80;6.53;;;5.00;99.90;;;;;;5078628;28;20486;-79
2022/12/06 12:32:48;;;;;;;7.80;6.57;;;5.10;99.90;;;;;;5087568;28;20446;-79
2022/12/06 12:35:26;;;;;;;8.47;7.23;;;5.20;99.90;;;;;;5076022;28;20520;-79
2022/12/06 12:37:56;;;;;;;8.73;6.57;;;5.10;99.90;;;;;;5075800;28;20456;-78
2022/12/06 12:40:26;;;;;;;9.83;7.23;;;5.10;99.90;;;;;;5070730;28;20458;-78
2022/12/06 12:42:58;;;;;;;11.60;8.07;;;5.10;99.90;;;;;;5079423;28;20513;-78
2022/12/06 12:45:26;;;;;;;10.60;8.07;;;5.00;99.90;;;;;;5073222;28;20441;-78
2022/12/06 12:48:02;;;;;;;9.10;6.80;;;4.90;99.90;;;;;;5068784;28;20522;-78
2022/12/06 12:50:31;;;;;;;9.37;6.77;;;4.80;99.90;;;;;;5076573;28;20552;-78
2022/12/06 12:52:59;;;;;;;9.93;6.90;;;4.90;99.90;;;;;;5070152;28;20520;-78
2022/12/06 12:55:29;;;;;;;8.90;7.30;;;4.90;99.90;;;;;;5066873;28;20530;-78
2022/12/06 12:57:58;;;;;;;7.97;6.77;;;4.90;99.90;;;;;;5067714;28;20452;-78
2022/12/06 13:00:29;;;;;;;8.83;7.30;;;4.90;99.90;;;;;;5067661;28;20488;-78
2022/12/06 13:02:59;;;;;;;7.73;6.93;;;5.00;99.90;;;;;;5073695;28;20454;-78
2022/12/06 13:05:30;;;;;;;9.97;7.37;;;5.10;99.90;;;;;;5082915;28;20498;-78
2022/12/06 13:08:05;;;;;;;9.20;6.13;;;5.10;99.90;;;;;;5077895;28;20470;-78
2022/12/06 13:10:34;;;;;;;8.50;6.60;;;5.20;99.90;;;;;;5082181;28;20517;-78
2022/12/06 13:13:03;;;;;;;8.87;7.10;;;5.20;99.90;;;;;;5076216;28;20484;-78
2022/12/06 13:15:35;;;;;;;17.67;10.83;;;5.20;99.90;;;;;;5085399;28;20533;-79
2022/12/06 13:18:10;;;;;;;8.17;6.40;;;5.10;99.90;;;;;;5074830;28;20945;-79
2022/12/06 13:20:40;;;;;;;7.13;5.40;;;5.00;99.90;;;;;;5082709;28;20509;-79
2022/12/06 13:23:13;;;;;;;8.07;6.27;;;4.90;99.90;;;;;;5081520;28;20462;-79
2022/12/06 13:25:42;;;;;;;9.23;6.40;;;4.80;99.90;;;;;;5079609;28;20484;-79
2022/12/06 13:28:15;;;;;;;9.83;7.50;;;4.80;99.90;;;;;;5084950;28;20487;-78
2022/12/06 13:30:43;;;;;;;7.10;6.40;;;4.70;99.90;;;;;;5084036;28;20540;-79
2022/12/06 13:33:17;;;;;;;8.97;7.47;;;4.80;99.90;;;;;;5083583;28;20612;-79
2022/12/06 13:35:54;;;;;;;11.30;9.43;;;4.80;99.90;;;;;;5067189;28;20866;-77
2022/12/06 13:38:24;;;;;;;10.57;7.67;;;4.70;99.90;;;;;;5070510;28;20516;-77